createdAt,value
2023-01-10T00:01:13.283Z,4.00
2023-01-10T00:06:15.879Z,4.20
2023-01-10T00:11:37.183Z,3.70
2023-01-10T00:16:40.718Z,4.40
2023-01-10T00:21:43.490Z,5.90
2023-01-10T00:26:51.217Z,3.80
2023-01-10T00:31:54.882Z,3.70
2023-01-10T00:36:57.651Z,4.80
2023-01-10T00:42:19.138Z,4.70
2023-01-10T00:47:21.890Z,5.80
2023-01-10T00:52:24.581Z,3.80
2023-01-10T00:57:27.181Z,5.10
2023-01-10T01:02:30.108Z,7.20
2023-01-10T01:07:32.761Z,4.20
2023-01-10T01:12:35.647Z,4.30
2023-01-10T01:17:38.266Z,6.10
2023-01-10T01:22:41.652Z,4.60
2023-01-10T01:27:44.351Z,5.70
2023-01-10T01:32:47.368Z,7.30
2023-01-10T01:37:50.055Z,5.30
2023-01-10T01:42:56.287Z,6.30
2023-01-10T01:48:13.902Z,5.30
2023-01-10T01:53:28.508Z,7.60
2023-01-10T01:58:44.341Z,5.30
2023-01-10T02:03:51.391Z,6.00
2023-01-10T02:09:15.388Z,4.90
2023-01-10T02:14:19.978Z,5.80
2023-01-10T02:20:01.518Z,4.20
2023-01-10T02:25:14.610Z,5.90
2023-01-10T02:30:47.211Z,5.70
2023-01-10T02:35:59.215Z,3.90
2023-01-10T02:46:10.967Z,5.00
2023-01-10T02:51:20.203Z,6.70
2023-01-10T02:56:43.259Z,4.70
2023-01-10T03:02:36.717Z,5.90
2023-01-10T03:07:56.381Z,6.90
2023-01-10T03:13:07.413Z,5.10
2023-01-10T03:18:17.207Z,6.70
2023-01-10T03:23:22.529Z,6.20
2023-01-10T03:28:31.808Z,6.50
2023-01-10T03:33:35.843Z,7.50
2023-01-10T03:38:51.739Z,7.10
2023-01-10T03:44:36.340Z,6.00
2023-01-10T03:49:47.914Z,7.90
2023-01-10T03:54:51.216Z,6.60
2023-01-10T03:59:58.099Z,9.90
2023-01-10T04:05:01.049Z,6.60
2023-01-10T04:10:05.461Z,9.90
2023-01-10T04:15:08.516Z,5.50
2023-01-10T04:20:11.652Z,7.70
2023-01-10T04:25:14.305Z,8.30
2023-01-10T04:30:18.200Z,8.50
2023-01-10T04:35:20.759Z,6.20
2023-01-10T04:40:23.718Z,11.00
2023-01-10T04:45:26.339Z,8.00
2023-01-10T04:50:29.083Z,8.10
2023-01-10T04:55:33.298Z,9.20
2023-01-10T05:00:36.098Z,6.70
2023-01-10T05:05:38.744Z,8.20
2023-01-10T05:10:41.267Z,8.00
2023-01-10T05:15:44.035Z,8.80
2023-01-10T05:32:02.508Z,9.20
2023-01-10T05:37:05.083Z,12.60
2023-01-10T05:42:07.930Z,8.00
2023-01-10T05:47:10.446Z,12.70
2023-01-10T05:52:13.002Z,13.30
2023-01-10T05:57:15.785Z,11.30
2023-01-10T06:02:18.554Z,11.20
2023-01-10T06:07:22.376Z,15.20
2023-01-10T06:12:24.999Z,15.80
2023-01-10T06:17:27.826Z,12.30
2023-01-10T06:22:30.466Z,11.10
2023-01-10T06:27:33.496Z,11.80
2023-01-10T06:32:36.843Z,20.40
2023-01-10T06:37:39.582Z,9.20
2023-01-10T06:42:42.351Z,11.30
2023-01-10T06:47:45.196Z,14.50
2023-01-10T06:52:56.132Z,14.80
2023-01-10T06:58:01.466Z,9.30
2023-01-10T07:03:04.371Z,12.80
2023-01-10T07:08:07.377Z,14.50
2023-01-10T07:13:10.179Z,13.90
2023-01-10T07:18:12.902Z,8.50
2023-01-10T07:23:15.704Z,9.10
2023-01-10T07:28:18.543Z,13.10
2023-01-10T07:33:21.106Z,13.70
2023-01-10T07:38:24.056Z,13.80
2023-01-10T07:43:26.762Z,8.90
2023-01-10T07:48:30.333Z,11.80
2023-01-10T07:53:33.393Z,15.80
2023-01-10T07:58:35.989Z,12.80
2023-01-10T08:03:38.729Z,12.30
2023-01-10T08:08:41.352Z,14.10
2023-01-10T08:13:43.962Z,15.40
2023-01-10T08:18:46.831Z,16.10
2023-01-10T08:23:51.706Z,12.80
2023-01-10T08:28:54.362Z,16.00
2023-01-10T08:33:56.860Z,13.30
2023-01-10T08:38:59.409Z,19.50
2023-01-10T08:44:02.079Z,17.50
2023-01-10T08:49:04.682Z,10.90
2023-01-10T08:54:07.874Z,13.80
2023-01-10T08:59:10.509Z,13.50
2023-01-10T09:04:13.615Z,18.10
2023-01-10T09:09:16.312Z,14.60
2023-01-10T09:14:19.076Z,12.30
2023-01-10T09:19:21.948Z,11.60
2023-01-10T09:24:24.498Z,15.30
2023-01-10T09:29:27.013Z,12.30
2023-01-10T09:34:29.892Z,11.80
2023-01-10T09:39:34.135Z,12.20
2023-01-10T09:44:51.583Z,10.30
2023-01-10T09:50:06.614Z,7.30
2023-01-10T09:55:32.217Z,10.70
2023-01-10T10:00:40.929Z,12.00
2023-01-10T10:05:43.662Z,14.50
2023-01-10T10:11:23.999Z,10.20
2023-01-10T10:16:32.377Z,9.70
2023-01-10T10:21:56.199Z,8.90
2023-01-10T10:27:23.528Z,10.10
2023-01-10T10:32:53.007Z,12.00
2023-01-10T10:38:02.111Z,11.80
2023-01-10T10:43:15.678Z,17.30
2023-01-10T10:48:31.403Z,13.40
2023-01-10T10:53:35.938Z,12.00
2023-01-10T10:58:42.887Z,11.40
2023-01-10T11:03:54.204Z,9.70
2023-01-10T11:09:01.374Z,9.50
2023-01-10T11:14:07.366Z,14.20
2023-01-10T11:19:23.075Z,10.20
2023-01-10T11:24:39.458Z,10.40
2023-01-10T11:29:52.462Z,12.50
2023-01-10T11:34:59.322Z,13.00
2023-01-10T11:40:23.978Z,9.80
2023-01-10T11:45:32.755Z,8.60
2023-01-10T11:50:38.214Z,8.70
2023-01-10T11:55:50.232Z,10.80
2023-01-10T12:00:52.977Z,10.40
2023-01-10T12:06:09.136Z,10.80
2023-01-10T12:11:17.810Z,16.30
2023-01-10T12:16:23.939Z,10.30
2023-01-10T12:21:39.149Z,14.00
2023-01-10T12:26:42.593Z,10.60
2023-01-10T12:31:45.413Z,10.00
2023-01-10T12:36:56.148Z,10.40
2023-01-10T12:42:26.951Z,10.10
2023-01-10T12:48:02.036Z,12.40
2023-01-10T12:53:24.828Z,8.70
2023-01-10T12:58:48.129Z,9.90
2023-01-10T13:03:57.553Z,9.40
2023-01-10T13:09:06.127Z,11.50
2023-01-10T13:14:14.954Z,6.70
2023-01-10T13:19:21.316Z,10.00
2023-01-10T13:24:28.924Z,12.40
2023-01-10T13:29:40.775Z,11.50
2023-01-10T13:34:43.704Z,10.00
2023-01-10T13:39:53.514Z,13.70
2023-01-10T13:45:02.357Z,12.60
2023-01-10T13:50:33.506Z,8.80
2023-01-10T13:55:38.961Z,13.00
2023-01-10T14:01:07.629Z,17.40
2023-01-10T14:06:28.603Z,10.80
2023-01-10T14:11:57.915Z,7.40
2023-01-10T14:17:18.923Z,12.00
2023-01-10T14:22:31.179Z,9.10
2023-01-10T14:27:53.644Z,11.50
2023-01-10T14:33:00.597Z,11.40
2023-01-10T14:38:04.333Z,10.80
2023-01-10T14:43:13.629Z,8.70
2023-01-10T14:48:27.224Z,10.20
2023-01-10T14:53:30.617Z,14.40
2023-01-10T14:58:33.121Z,11.50
2023-01-10T15:03:38.566Z,10.50
2023-01-10T15:08:41.574Z,9.10
2023-01-10T15:13:53.556Z,13.10
2023-01-10T15:18:58.360Z,10.20
2023-01-10T15:24:00.954Z,13.20
2023-01-10T15:29:12.504Z,10.50
2023-01-10T15:34:18.972Z,10.20
2023-01-10T15:39:25.480Z,9.70
2023-01-10T15:44:54.508Z,13.10
2023-01-10T15:49:58.287Z,8.30
2023-01-10T15:55:01.009Z,9.50
2023-01-10T16:00:04.354Z,12.80
2023-01-10T16:05:18.066Z,12.20
2023-01-10T16:10:24.526Z,12.80
2023-01-10T16:15:30.014Z,9.40
2023-01-10T16:20:37.433Z,10.10
2023-01-10T16:25:44.921Z,15.80
2023-01-10T16:30:48.512Z,12.40
2023-01-10T16:35:56.686Z,10.90
2023-01-10T16:41:22.878Z,13.90
2023-01-10T16:46:25.794Z,6.80
2023-01-10T16:51:32.440Z,9.40
2023-01-10T16:56:35.145Z,6.10
2023-01-10T17:01:43.507Z,8.70
2023-01-10T17:06:46.365Z,10.70
2023-01-10T17:11:54.537Z,6.70
2023-01-10T17:16:57.175Z,10.80
2023-01-10T17:22:00.514Z,8.60
2023-01-10T17:27:03.259Z,10.30
2023-01-10T17:32:08.299Z,11.30
2023-01-10T17:37:10.995Z,9.40
2023-01-10T17:42:13.582Z,9.80
2023-01-10T17:47:16.413Z,9.80
2023-01-10T17:52:18.938Z,7.50
2023-01-10T17:57:21.542Z,8.90
2023-01-10T18:02:24.331Z,9.00
2023-01-10T18:07:27.136Z,10.70
2023-01-10T18:12:30.004Z,7.50
2023-01-10T18:17:32.586Z,10.00
2023-01-10T18:22:54.049Z,10.30
2023-01-10T18:27:56.838Z,9.90
2023-01-10T18:32:59.443Z,8.50
2023-01-10T18:38:02.008Z,11.30
2023-01-10T18:43:04.599Z,10.90
2023-01-10T18:48:07.598Z,11.40
2023-01-10T18:53:10.222Z,10.00
2023-01-10T18:58:12.803Z,9.10
2023-01-10T19:03:15.454Z,12.90
2023-01-10T19:08:18.113Z,9.60
2023-01-10T19:13:21.114Z,8.60
2023-01-10T19:18:23.687Z,10.10
2023-01-10T19:23:26.209Z,9.50
2023-01-10T19:28:29.993Z,7.40
2023-01-10T19:33:37.618Z,10.80
2023-01-10T19:38:40.706Z,9.40
2023-01-10T19:43:43.243Z,7.90
2023-01-10T19:48:45.958Z,7.60
2023-01-10T19:53:48.501Z,9.40
2023-01-10T19:58:51.492Z,8.20
2023-01-10T20:03:57.190Z,7.60
2023-01-10T20:08:59.921Z,7.90
2023-01-10T20:14:03.399Z,11.60
2023-01-10T20:19:09.809Z,11.50
2023-01-10T20:24:16.476Z,13.60
2023-01-10T20:29:20.115Z,11.10
2023-01-10T20:34:22.958Z,14.40
2023-01-10T20:39:26.075Z,8.40
2023-01-10T20:44:29.731Z,8.80
2023-01-10T20:49:32.389Z,7.30
2023-01-10T20:54:36.337Z,8.80
2023-01-10T20:59:38.969Z,10.00
2023-01-10T21:04:41.558Z,6.90
2023-01-10T21:09:44.541Z,10.50
2023-01-10T21:14:49.166Z,8.60
2023-01-10T21:19:51.791Z,10.00
2023-01-10T21:24:54.865Z,7.90
2023-01-10T21:29:58.268Z,8.20
2023-01-10T21:35:00.983Z,6.80
2023-01-10T21:40:04.640Z,8.40
2023-01-10T21:45:07.869Z,9.90
2023-01-10T21:50:12.377Z,8.00
2023-01-10T21:55:16.468Z,7.10
2023-01-10T22:00:19.810Z,10.40
2023-01-10T22:05:22.469Z,12.10
2023-01-10T22:10:25.273Z,6.20
2023-01-10T22:15:27.912Z,8.70
2023-01-10T22:20:30.609Z,8.10
2023-01-10T22:25:33.183Z,7.90
2023-01-10T22:30:35.746Z,6.30
2023-01-10T22:35:38.293Z,10.00
2023-01-10T22:40:41.343Z,5.70
2023-01-10T22:45:44.312Z,6.90
2023-01-10T22:50:50.136Z,6.40
2023-01-10T22:55:54.609Z,8.80
2023-01-10T23:00:57.464Z,6.40
2023-01-10T23:06:00.796Z,9.00
2023-01-10T23:11:03.467Z,8.10
2023-01-10T23:16:09.344Z,7.80
2023-01-10T23:21:11.944Z,8.70
2023-01-10T23:26:14.670Z,9.10
2023-01-10T23:31:20.550Z,9.00
2023-01-10T23:36:24.000Z,7.00
2023-01-10T23:41:26.543Z,9.30
2023-01-10T23:46:29.260Z,5.50
2023-01-10T23:51:32.294Z,8.20
2023-01-10T23:56:35.490Z,10.10
